sensor_id;sensor_type;location;lat;lon;timestamp;P1;durP1;ratioP1;P2;durP2;ratioP2
41255;SDS011;26989;45.524;10.938;2023-12-29T07:30:49;40.05;;;25.15;;
41255;SDS011;26989;45.524;10.938;2023-12-29T07:33:17;46.03;;;25.33;;
41255;SDS011;26989;45.524;10.938;2023-12-29T07:35:44;46.83;;;26.92;;
41255;SDS011;26989;45.524;10.938;2023-12-29T07:38:11;48.55;;;27.23;;
41255;SDS011;26989;45.524;10.938;2023-12-29T07:40:38;46.17;;;25.77;;
41255;SDS011;26989;45.524;10.938;2023-12-29T07:43:04;43.83;;;25.83;;
41255;SDS011;26989;45.524;10.938;2023-12-29T07:45:32;41.95;;;24.83;;
41255;SDS011;26989;45.524;10.938;2023-12-29T07:47:59;43.72;;;25.83;;
41255;SDS011;26989;45.524;10.938;2023-12-29T07:50:26;40.28;;;25.17;;
41255;SDS011;26989;45.524;10.938;2023-12-29T07:52:53;43.95;;;26.60;;
41255;SDS011;26989;45.524;10.938;2023-12-29T07:55:20;49.60;;;26.48;;
41255;SDS011;26989;45.524;10.938;2023-12-29T07:57:47;48.13;;;26.20;;
41255;SDS011;26989;45.524;10.938;2023-12-29T08:00:14;55.05;;;29.00;;
41255;SDS011;26989;45.524;10.938;2023-12-29T08:02:42;44.90;;;27.00;;
41255;SDS011;26989;45.524;10.938;2023-12-29T08:05:09;49.40;;;25.38;;
41255;SDS011;26989;45.524;10.938;2023-12-29T08:07:36;46.40;;;26.92;;
41255;SDS011;26989;45.524;10.938;2023-12-29T08:10:06;48.33;;;26.90;;
41255;SDS011;26989;45.524;10.938;2023-12-29T08:12:34;52.58;;;28.20;;
41255;SDS011;26989;45.524;10.938;2023-12-29T08:15:06;43.63;;;26.10;;
41255;SDS011;26989;45.524;10.938;2023-12-29T08:17:34;52.10;;;27.08;;
41255;SDS011;26989;45.524;10.938;2023-12-29T08:20:01;44.03;;;26.13;;
41255;SDS011;26989;45.524;10.938;2023-12-29T08:22:37;44.80;;;25.75;;
41255;SDS011;26989;45.524;10.938;2023-12-29T08:25:04;46.30;;;25.85;;
41255;SDS011;26989;45.524;10.938;2023-12-29T08:27:31;50.05;;;27.58;;
41255;SDS011;26989;45.524;10.938;2023-12-29T08:29:58;52.40;;;27.15;;
41255;SDS011;26989;45.524;10.938;2023-12-29T08:32:25;46.80;;;27.63;;
41255;SDS011;26989;45.524;10.938;2023-12-29T08:34:52;48.10;;;27.20;;
41255;SDS011;26989;45.524;10.938;2023-12-29T08:37:19;45.10;;;26.00;;
41255;SDS011;26989;45.524;10.938;2023-12-29T08:39:47;40.67;;;25.38;;
41255;SDS011;26989;45.524;10.938;2023-12-29T08:42:14;48.30;;;27.08;;
41255;SDS011;26989;45.524;10.938;2023-12-29T08:44:41;43.10;;;25.90;;
41255;SDS011;26989;45.524;10.938;2023-12-29T08:47:09;45.47;;;26.88;;
41255;SDS011;26989;45.524;10.938;2023-12-29T08:49:36;41.75;;;25.85;;
41255;SDS011;26989;45.524;10.938;2023-12-29T08:52:04;43.58;;;26.88;;
41255;SDS011;26989;45.524;10.938;2023-12-29T08:54:31;49.20;;;26.73;;
41255;SDS011;26989;45.524;10.938;2023-12-29T08:56:58;50.45;;;28.05;;
41255;SDS011;26989;45.524;10.938;2023-12-29T08:59:25;43.92;;;27.58;;
41255;SDS011;26989;45.524;10.938;2023-12-29T09:01:52;50.30;;;28.00;;
41255;SDS011;26989;45.524;10.938;2023-12-29T09:04:19;51.30;;;27.90;;
41255;SDS011;26989;45.524;10.938;2023-12-29T09:06:46;51.28;;;27.10;;
41255;SDS011;26989;45.524;10.938;2023-12-29T09:09:13;48.63;;;26.77;;
41255;SDS011;26989;45.524;10.938;2023-12-29T09:11:41;45.22;;;27.65;;
41255;SDS011;26989;45.524;10.938;2023-12-29T09:14:08;51.05;;;28.50;;
41255;SDS011;26989;45.524;10.938;2023-12-29T09:16:35;48.92;;;28.88;;
41255;SDS011;26989;45.524;10.938;2023-12-29T09:19:02;51.47;;;29.08;;
41255;SDS011;26989;45.524;10.938;2023-12-29T09:21:47;51.10;;;28.00;;
41255;SDS011;26989;45.524;10.938;2023-12-29T09:24:14;52.10;;;29.58;;
41255;SDS011;26989;45.524;10.938;2023-12-29T09:26:41;47.00;;;27.45;;
41255;SDS011;26989;45.524;10.938;2023-12-29T09:29:08;47.13;;;27.77;;
41255;SDS011;26989;45.524;10.938;2023-12-29T09:31:35;50.35;;;28.42;;
41255;SDS011;26989;45.524;10.938;2023-12-29T09:34:02;47.58;;;28.75;;
41255;SDS011;26989;45.524;10.938;2023-12-29T09:36:29;47.95;;;28.30;;
41255;SDS011;26989;45.524;10.938;2023-12-29T09:38:56;45.05;;;27.13;;
41255;SDS011;26989;45.524;10.938;2023-12-29T09:41:23;50.63;;;27.95;;
41255;SDS011;26989;45.524;10.938;2023-12-29T09:43:52;45.97;;;27.27;;
41255;SDS011;26989;45.524;10.938;2023-12-29T09:46:19;47.58;;;28.85;;
41255;SDS011;26989;45.524;10.938;2023-12-29T09:48:48;59.63;;;31.52;;
41255;SDS011;26989;45.524;10.938;2023-12-29T09:51:18;59.13;;;31.13;;
41255;SDS011;26989;45.524;10.938;2023-12-29T09:53:49;53.97;;;31.10;;
41255;SDS011;26989;45.524;10.938;2023-12-29T09:56:18;48.78;;;29.27;;
41255;SDS011;26989;45.524;10.938;2023-12-29T09:58:48;47.53;;;29.42;;
41255;SDS011;26989;45.524;10.938;2023-12-29T10:01:17;48.35;;;29.27;;
41255;SDS011;26989;45.524;10.938;2023-12-29T10:03:46;54.33;;;28.92;;
41255;SDS011;26989;45.524;10.938;2023-12-29T10:06:15;47.35;;;28.42;;
41255;SDS011;26989;45.524;10.938;2023-12-29T10:08:47;51.45;;;31.17;;
41255;SDS011;26989;45.524;10.938;2023-12-29T10:11:21;47.28;;;29.70;;
41255;SDS011;26989;45.524;10.938;2023-12-29T10:13:49;56.63;;;31.00;;
41255;SDS011;26989;45.524;10.938;2023-12-29T10:19:27;56.42;;;32.40;;
41255;SDS011;26989;45.524;10.938;2023-12-29T10:22:24;53.83;;;31.25;;
41255;SDS011;26989;45.524;10.938;2023-12-29T10:25:00;56.67;;;30.38;;
41255;SDS011;26989;45.524;10.938;2023-12-29T10:27:28;56.80;;;31.45;;
41255;SDS011;26989;45.524;10.938;2023-12-29T10:29:54;48.85;;;29.10;;
41255;SDS011;26989;45.524;10.938;2023-12-29T10:32:21;45.50;;;28.20;;
41255;SDS011;26989;45.524;10.938;2023-12-29T10:34:48;50.33;;;29.88;;
41255;SDS011;26989;45.524;10.938;2023-12-29T10:37:19;47.25;;;29.08;;
41255;SDS011;26989;45.524;10.938;2023-12-29T10:39:55;49.13;;;28.33;;
41255;SDS011;26989;45.524;10.938;2023-12-29T10:42:25;49.50;;;30.00;;
41255;SDS011;26989;45.524;10.938;2023-12-29T10:45:04;50.17;;;27.75;;
41255;SDS011;26989;45.524;10.938;2023-12-29T10:47:35;51.03;;;28.25;;
41255;SDS011;26989;45.524;10.938;2023-12-29T10:50:02;46.97;;;28.80;;
41255;SDS011;26989;45.524;10.938;2023-12-29T10:52:31;44.80;;;29.10;;
41255;SDS011;26989;45.524;10.938;2023-12-29T10:55:05;45.58;;;29.05;;
41255;SDS011;26989;45.524;10.938;2023-12-29T10:57:33;49.15;;;30.77;;
41255;SDS011;26989;45.524;10.938;2023-12-29T11:00:01;48.33;;;29.52;;
41255;SDS011;26989;45.524;10.938;2023-12-29T11:02:28;53.08;;;30.67;;
41255;SDS011;26989;45.524;10.938;2023-12-29T11:05:05;54.10;;;31.42;;
41255;SDS011;26989;45.524;10.938;2023-12-29T11:07:38;56.50;;;32.42;;
41255;SDS011;26989;45.524;10.938;2023-12-29T11:10:06;53.53;;;32.50;;
41255;SDS011;26989;45.524;10.938;2023-12-29T11:12:37;50.72;;;32.22;;
41255;SDS011;26989;45.524;10.938;2023-12-29T11:15:05;54.58;;;33.30;;
41255;SDS011;26989;45.524;10.938;2023-12-29T11:17:34;57.40;;;32.47;;
41255;SDS011;26989;45.524;10.938;2023-12-29T11:20:03;51.50;;;30.50;;
41255;SDS011;26989;45.524;10.938;2023-12-29T11:22:31;51.88;;;31.77;;
41255;SDS011;26989;45.524;10.938;2023-12-29T11:25:08;53.17;;;30.05;;
41255;SDS011;26989;45.524;10.938;2023-12-29T11:27:36;57.75;;;33.22;;
41255;SDS011;26989;45.524;10.938;2023-12-29T11:30:04;54.45;;;31.88;;
41255;SDS011;26989;45.524;10.938;2023-12-29T11:32:47;51.90;;;32.20;;
41255;SDS011;26989;45.524;10.938;2023-12-29T11:35:34;51.45;;;31.05;;
41255;SDS011;26989;45.524;10.938;2023-12-29T11:41:01;53.65;;;33.60;;
41255;SDS011;26989;45.524;10.938;2023-12-29T11:43:35;59.38;;;32.03;;
41255;SDS011;26989;45.524;10.938;2023-12-29T11:46:03;53.13;;;31.73;;
41255;SDS011;26989;45.524;10.938;2023-12-29T11:51:31;52.05;;;31.58;;
41255;SDS011;26989;45.524;10.938;2023-12-29T11:54:01;52.45;;;30.52;;
41255;SDS011;26989;45.524;10.938;2023-12-29T11:56:35;56.50;;;31.63;;
41255;SDS011;26989;45.524;10.938;2023-12-29T12:01:52;51.10;;;28.73;;
41255;SDS011;26989;45.524;10.938;2023-12-29T12:04:40;52.60;;;30.73;;
41255;SDS011;26989;45.524;10.938;2023-12-29T12:07:56;46.70;;;29.23;;
41255;SDS011;26989;45.524;10.938;2023-12-29T12:12:47;50.08;;;29.38;;
41255;SDS011;26989;45.524;10.938;2023-12-29T12:17:55;52.35;;;28.73;;
41255;SDS011;26989;45.524;10.938;2023-12-29T12:20:38;50.17;;;29.00;;
41255;SDS011;26989;45.524;10.938;2023-12-29T12:23:09;50.63;;;28.73;;
41255;SDS011;26989;45.524;10.938;2023-12-29T12:25:39;52.67;;;30.50;;
41255;SDS011;26989;45.524;10.938;2023-12-29T12:28:06;49.88;;;31.25;;
41255;SDS011;26989;45.524;10.938;2023-12-29T12:30:34;49.40;;;30.27;;
41255;SDS011;26989;45.524;10.938;2023-12-29T12:33:02;53.38;;;30.55;;
41255;SDS011;26989;45.524;10.938;2023-12-29T12:35:31;50.22;;;30.30;;
41255;SDS011;26989;45.524;10.938;2023-12-29T12:38:14;47.70;;;29.30;;
41255;SDS011;26989;45.524;10.938;2023-12-29T12:40:48;50.13;;;29.27;;
41255;SDS011;26989;45.524;10.938;2023-12-29T12:43:15;49.30;;;30.13;;
41255;SDS011;26989;45.524;10.938;2023-12-29T12:46:00;59.55;;;31.75;;
41255;SDS011;26989;45.524;10.938;2023-12-29T12:48:41;57.67;;;31.25;;
41255;SDS011;26989;45.524;10.938;2023-12-29T12:51:11;54.80;;;32.30;;
41255;SDS011;26989;45.524;10.938;2023-12-29T12:53:42;56.10;;;31.65;;
41255;SDS011;26989;45.524;10.938;2023-12-29T12:56:10;50.88;;;31.60;;
41255;SDS011;26989;45.524;10.938;2023-12-29T12:58:37;56.03;;;32.65;;
41255;SDS011;26989;45.524;10.938;2023-12-29T13:01:05;54.97;;;32.28;;
41255;SDS011;26989;45.524;10.938;2023-12-29T13:03:32;55.40;;;31.75;;
41255;SDS011;26989;45.524;10.938;2023-12-29T13:06:00;60.97;;;36.22;;
41255;SDS011;26989;45.524;10.938;2023-12-29T13:08:27;53.10;;;33.72;;
41255;SDS011;26989;45.524;10.938;2023-12-29T13:11:03;61.15;;;33.30;;
41255;SDS011;26989;45.524;10.938;2023-12-29T13:16:04;54.50;;;31.40;;
41255;SDS011;26989;45.524;10.938;2023-12-29T13:18:31;55.42;;;33.33;;
41255;SDS011;26989;45.524;10.938;2023-12-29T13:20:59;55.65;;;32.85;;
41255;SDS011;26989;45.524;10.938;2023-12-29T13:23:27;53.13;;;31.98;;
41255;SDS011;26989;45.524;10.938;2023-12-29T13:25:55;55.60;;;31.30;;
41255;SDS011;26989;45.524;10.938;2023-12-29T13:28:25;54.75;;;32.33;;
41255;SDS011;26989;45.524;10.938;2023-12-29T13:30:54;56.08;;;32.83;;
41255;SDS011;26989;45.524;10.938;2023-12-29T13:33:36;52.78;;;32.67;;
41255;SDS011;26989;45.524;10.938;2023-12-29T13:36:22;55.03;;;32.38;;
41255;SDS011;26989;45.524;10.938;2023-12-29T13:39:05;52.40;;;30.98;;
41255;SDS011;26989;45.524;10.938;2023-12-29T13:42:00;50.97;;;30.42;;
41255;SDS011;26989;45.524;10.938;2023-12-29T13:44:29;54.63;;;32.97;;
41255;SDS011;26989;45.524;10.938;2023-12-29T13:46:56;50.90;;;31.83;;
41255;SDS011;26989;45.524;10.938;2023-12-29T13:49:24;56.47;;;32.80;;
41255;SDS011;26989;45.524;10.938;2023-12-29T13:51:51;51.15;;;32.85;;
41255;SDS011;26989;45.524;10.938;2023-12-29T13:54:18;55.03;;;31.88;;
41255;SDS011;26989;45.524;10.938;2023-12-29T13:56:52;56.45;;;32.80;;
41255;SDS011;26989;45.524;10.938;2023-12-29T13:59:29;54.45;;;31.52;;
41255;SDS011;26989;45.524;10.938;2023-12-29T14:02:03;57.03;;;33.33;;
41255;SDS011;26989;45.524;10.938;2023-12-29T14:04:47;57.63;;;33.33;;
41255;SDS011;26989;45.524;10.938;2023-12-29T14:07:18;52.25;;;31.92;;
41255;SDS011;26989;45.524;10.938;2023-12-29T14:09:53;52.67;;;33.55;;
41255;SDS011;26989;45.524;10.938;2023-12-29T14:12:24;53.88;;;32.30;;
41255;SDS011;26989;45.524;10.938;2023-12-29T14:14:53;53.40;;;31.38;;
41255;SDS011;26989;45.524;10.938;2023-12-29T14:17:23;53.75;;;31.58;;
41255;SDS011;26989;45.524;10.938;2023-12-29T14:19:50;54.75;;;32.05;;
41255;SDS011;26989;45.524;10.938;2023-12-29T14:22:21;55.28;;;33.97;;
41255;SDS011;26989;45.524;10.938;2023-12-29T14:25:02;57.33;;;33.42;;
41255;SDS011;26989;45.524;10.938;2023-12-29T14:27:30;56.85;;;32.33;;
41255;SDS011;26989;45.524;10.938;2023-12-29T14:29:57;52.22;;;31.73;;
41255;SDS011;26989;45.524;10.938;2023-12-29T14:32:26;61.97;;;33.13;;
41255;SDS011;26989;45.524;10.938;2023-12-29T14:34:55;55.28;;;32.33;;
41255;SDS011;26989;45.524;10.938;2023-12-29T14:37:22;53.78;;;32.30;;
41255;SDS011;26989;45.524;10.938;2023-12-29T14:39:49;51.83;;;31.20;;
41255;SDS011;26989;45.524;10.938;2023-12-29T14:42:17;53.00;;;31.10;;
41255;SDS011;26989;45.524;10.938;2023-12-29T14:44:47;56.35;;;31.63;;
41255;SDS011;26989;45.524;10.938;2023-12-29T14:47:15;47.05;;;29.58;;
41255;SDS011;26989;45.524;10.938;2023-12-29T14:49:43;56.42;;;30.83;;
41255;SDS011;26989;45.524;10.938;2023-12-29T14:52:13;51.15;;;29.77;;
41255;SDS011;26989;45.524;10.938;2023-12-29T14:54:39;48.67;;;29.90;;
41255;SDS011;26989;45.524;10.938;2023-12-29T14:57:07;57.53;;;32.60;;
41255;SDS011;26989;45.524;10.938;2023-12-29T14:59:40;54.22;;;32.55;;
41255;SDS011;26989;45.524;10.938;2023-12-29T15:02:07;57.67;;;31.45;;
41255;SDS011;26989;45.524;10.938;2023-12-29T15:04:35;54.47;;;30.45;;
41255;SDS011;26989;45.524;10.938;2023-12-29T15:07:02;55.45;;;31.67;;
41255;SDS011;26989;45.524;10.938;2023-12-29T15:09:29;55.70;;;33.20;;
41255;SDS011;26989;45.524;10.938;2023-12-29T15:11:56;54.80;;;30.40;;
41255;SDS011;26989;45.524;10.938;2023-12-29T15:14:23;54.35;;;32.80;;
41255;SDS011;26989;45.524;10.938;2023-12-29T15:16:50;54.35;;;31.83;;
41255;SDS011;26989;45.524;10.938;2023-12-29T15:19:17;53.92;;;31.05;;
41255;SDS011;26989;45.524;10.938;2023-12-29T15:21:44;58.97;;;33.00;;
41255;SDS011;26989;45.524;10.938;2023-12-29T15:24:11;57.17;;;32.28;;
41255;SDS011;26989;45.524;10.938;2023-12-29T15:26:38;57.08;;;32.28;;
41255;SDS011;26989;45.524;10.938;2023-12-29T15:29:06;56.75;;;32.83;;
41255;SDS011;26989;45.524;10.938;2023-12-29T15:31:33;60.97;;;33.28;;
41255;SDS011;26989;45.524;10.938;2023-12-29T15:34:00;57.13;;;33.53;;
41255;SDS011;26989;45.524;10.938;2023-12-29T15:36:27;56.20;;;34.45;;
41255;SDS011;26989;45.524;10.938;2023-12-29T15:38:54;63.10;;;36.53;;
41255;SDS011;26989;45.524;10.938;2023-12-29T15:41:21;56.80;;;34.97;;
41255;SDS011;26989;45.524;10.938;2023-12-29T15:43:48;62.30;;;34.97;;
41255;SDS011;26989;45.524;10.938;2023-12-29T15:46:16;63.33;;;36.30;;
41255;SDS011;26989;45.524;10.938;2023-12-29T15:48:44;64.18;;;35.03;;
41255;SDS011;26989;45.524;10.938;2023-12-29T15:51:12;66.38;;;36.58;;
41255;SDS011;26989;45.524;10.938;2023-12-29T15:53:39;61.28;;;34.95;;
41255;SDS011;26989;45.524;10.938;2023-12-29T15:56:06;58.38;;;33.95;;
41255;SDS011;26989;45.524;10.938;2023-12-29T15:58:33;66.22;;;37.88;;
41255;SDS011;26989;45.524;10.938;2023-12-29T16:01:00;58.75;;;35.15;;
41255;SDS011;26989;45.524;10.938;2023-12-29T16:03:30;65.15;;;36.47;;
41255;SDS011;26989;45.524;10.938;2023-12-29T16:05:59;62.95;;;36.78;;
41255;SDS011;26989;45.524;10.938;2023-12-29T16:08:27;62.63;;;36.00;;
41255;SDS011;26989;45.524;10.938;2023-12-29T16:10:58;71.05;;;36.10;;
41255;SDS011;26989;45.524;10.938;2023-12-29T16:13:25;69.93;;;37.08;;
41255;SDS011;26989;45.524;10.938;2023-12-29T16:15:51;65.30;;;36.95;;
41255;SDS011;26989;45.524;10.938;2023-12-29T16:18:18;64.00;;;37.67;;
41255;SDS011;26989;45.524;10.938;2023-12-29T16:20:45;60.65;;;34.58;;
41255;SDS011;26989;45.524;10.938;2023-12-29T16:23:12;75.15;;;39.28;;
41255;SDS011;26989;45.524;10.938;2023-12-29T16:25:39;63.67;;;37.90;;
41255;SDS011;26989;45.524;10.938;2023-12-29T16:28:06;68.35;;;37.67;;
41255;SDS011;26989;45.524;10.938;2023-12-29T16:30:34;70.47;;;40.60;;
41255;SDS011;26989;45.524;10.938;2023-12-29T16:33:01;73.07;;;40.00;;
41255;SDS011;26989;45.524;10.938;2023-12-29T16:35:29;69.40;;;37.55;;
41255;SDS011;26989;45.524;10.938;2023-12-29T16:37:56;103.05;;;47.25;;
41255;SDS011;26989;45.524;10.938;2023-12-29T16:40:23;201.90;;;79.03;;
41255;SDS011;26989;45.524;10.938;2023-12-29T16:42:49;75.57;;;39.40;;
41255;SDS011;26989;45.524;10.938;2023-12-29T16:45:18;67.97;;;37.03;;
41255;SDS011;26989;45.524;10.938;2023-12-29T16:47:45;66.40;;;36.70;;
41255;SDS011;26989;45.524;10.938;2023-12-29T16:50:12;70.65;;;38.90;;
41255;SDS011;26989;45.524;10.938;2023-12-29T16:52:40;66.00;;;37.33;;
41255;SDS011;26989;45.524;10.938;2023-12-29T16:55:07;60.95;;;35.88;;
41255;SDS011;26989;45.524;10.938;2023-12-29T16:57:34;65.82;;;36.40;;
41255;SDS011;26989;45.524;10.938;2023-12-29T17:00:01;54.97;;;32.00;;
41255;SDS011;26989;45.524;10.938;2023-12-29T17:02:27;58.97;;;32.60;;
41255;SDS011;26989;45.524;10.938;2023-12-29T17:04:54;55.63;;;30.92;;
41255;SDS011;26989;45.524;10.938;2023-12-29T17:07:22;52.45;;;30.88;;
41255;SDS011;26989;45.524;10.938;2023-12-29T17:09:48;51.55;;;27.75;;
41255;SDS011;26989;45.524;10.938;2023-12-29T17:12:16;53.58;;;30.38;;
41255;SDS011;26989;45.524;10.938;2023-12-29T17:14:42;51.80;;;29.38;;
41255;SDS011;26989;45.524;10.938;2023-12-29T17:17:09;62.05;;;31.02;;
41255;SDS011;26989;45.524;10.938;2023-12-29T17:19:36;53.40;;;28.33;;
41255;SDS011;26989;45.524;10.938;2023-12-29T17:22:03;47.70;;;26.10;;
41255;SDS011;26989;45.524;10.938;2023-12-29T17:24:34;52.20;;;27.05;;
41255;SDS011;26989;45.524;10.938;2023-12-29T17:27:05;48.63;;;26.40;;
41255;SDS011;26989;45.524;10.938;2023-12-29T17:29:33;51.15;;;27.13;;
41255;SDS011;26989;45.524;10.938;2023-12-29T17:32:00;51.17;;;27.42;;
41255;SDS011;26989;45.524;10.938;2023-12-29T17:34:28;52.17;;;28.48;;
41255;SDS011;26989;45.524;10.938;2023-12-29T17:36:59;45.63;;;26.77;;
41255;SDS011;26989;45.524;10.938;2023-12-29T17:39:26;48.83;;;26.48;;
41255;SDS011;26989;45.524;10.938;2023-12-29T17:41:53;44.53;;;26.13;;
41255;SDS011;26989;45.524;10.938;2023-12-29T17:44:20;51.25;;;27.88;;
41255;SDS011;26989;45.524;10.938;2023-12-29T17:46:47;54.45;;;27.67;;
41255;SDS011;26989;45.524;10.938;2023-12-29T17:49:14;49.53;;;29.23;;
41255;SDS011;26989;45.524;10.938;2023-12-29T17:51:43;57.72;;;30.17;;
41255;SDS011;26989;45.524;10.938;2023-12-29T17:54:10;51.60;;;30.13;;
41255;SDS011;26989;45.524;10.938;2023-12-29T17:56:38;54.03;;;30.27;;
41255;SDS011;26989;45.524;10.938;2023-12-29T17:59:06;56.97;;;30.58;;
41255;SDS011;26989;45.524;10.938;2023-12-29T18:01:34;54.15;;;31.33;;
41255;SDS011;26989;45.524;10.938;2023-12-29T18:04:01;60.15;;;30.60;;
41255;SDS011;26989;45.524;10.938;2023-12-29T18:06:28;54.45;;;31.40;;
41255;SDS011;26989;45.524;10.938;2023-12-29T18:08:55;55.65;;;31.95;;
41255;SDS011;26989;45.524;10.938;2023-12-29T18:11:22;63.90;;;32.80;;
41255;SDS011;26989;45.524;10.938;2023-12-29T18:13:49;59.70;;;32.10;;
41255;SDS011;26989;45.524;10.938;2023-12-29T18:16:16;61.00;;;32.25;;
41255;SDS011;26989;45.524;10.938;2023-12-29T18:18:44;63.67;;;32.40;;
41255;SDS011;26989;45.524;10.938;2023-12-29T18:21:12;59.95;;;32.38;;
41255;SDS011;26989;45.524;10.938;2023-12-29T18:23:42;61.42;;;33.30;;
41255;SDS011;26989;45.524;10.938;2023-12-29T18:26:09;55.47;;;31.27;;
41255;SDS011;26989;45.524;10.938;2023-12-29T18:28:37;64.60;;;36.65;;
41255;SDS011;26989;45.524;10.938;2023-12-29T18:31:06;71.07;;;37.50;;
41255;SDS011;26989;45.524;10.938;2023-12-29T18:33:33;71.95;;;39.47;;
41255;SDS011;26989;45.524;10.938;2023-12-29T18:36:02;63.17;;;39.33;;
41255;SDS011;26989;45.524;10.938;2023-12-29T18:38:30;72.85;;;40.28;;
41255;SDS011;26989;45.524;10.938;2023-12-29T18:40:57;80.35;;;42.38;;
41255;SDS011;26989;45.524;10.938;2023-12-29T18:43:25;64.78;;;37.67;;
41255;SDS011;26989;45.524;10.938;2023-12-29T18:45:52;78.47;;;40.67;;
41255;SDS011;26989;45.524;10.938;2023-12-29T18:48:19;73.72;;;41.03;;
41255;SDS011;26989;45.524;10.938;2023-12-29T18:50:47;76.53;;;38.28;;
41255;SDS011;26989;45.524;10.938;2023-12-29T18:53:14;80.82;;;39.97;;
41255;SDS011;26989;45.524;10.938;2023-12-29T18:55:41;73.75;;;37.55;;
41255;SDS011;26989;45.524;10.938;2023-12-29T18:58:11;78.28;;;40.72;;
41255;SDS011;26989;45.524;10.938;2023-12-29T19:00:38;79.22;;;40.38;;
41255;SDS011;26989;45.524;10.938;2023-12-29T19:03:05;74.40;;;40.88;;
41255;SDS011;26989;45.524;10.938;2023-12-29T19:05:32;78.32;;;42.80;;
41255;SDS011;26989;45.524;10.938;2023-12-29T19:07:59;71.25;;;38.00;;
41255;SDS011;26989;45.524;10.938;2023-12-29T19:10:25;69.93;;;36.92;;
41255;SDS011;26989;45.524;10.938;2023-12-29T19:12:54;72.25;;;37.35;;
41255;SDS011;26989;45.524;10.938;2023-12-29T19:15:21;72.22;;;40.25;;
41255;SDS011;26989;45.524;10.938;2023-12-29T19:17:47;70.85;;;41.05;;
41255;SDS011;26989;45.524;10.938;2023-12-29T19:20:14;73.75;;;41.25;;
41255;SDS011;26989;45.524;10.938;2023-12-29T19:22:41;71.35;;;40.88;;
41255;SDS011;26989;45.524;10.938;2023-12-29T19:25:10;83.68;;;44.13;;
41255;SDS011;26989;45.524;10.938;2023-12-29T19:27:39;69.43;;;40.55;;
41255;SDS011;26989;45.524;10.938;2023-12-29T19:30:08;75.97;;;42.25;;
41255;SDS011;26989;45.524;10.938;2023-12-29T19:32:36;77.88;;;41.75;;
41255;SDS011;26989;45.524;10.938;2023-12-29T19:35:03;79.85;;;41.58;;
41255;SDS011;26989;45.524;10.938;2023-12-29T19:37:31;74.32;;;41.83;;
41255;SDS011;26989;45.524;10.938;2023-12-29T19:39:58;82.38;;;41.35;;
41255;SDS011;26989;45.524;10.938;2023-12-29T19:42:25;80.13;;;43.35;;
41255;SDS011;26989;45.524;10.938;2023-12-29T19:44:53;88.95;;;45.03;;
41255;SDS011;26989;45.524;10.938;2023-12-29T19:47:34;66.68;;;37.83;;
41255;SDS011;26989;45.524;10.938;2023-12-29T19:50:01;68.75;;;35.85;;
41255;SDS011;26989;45.524;10.938;2023-12-29T19:52:28;79.63;;;40.25;;
41255;SDS011;26989;45.524;10.938;2023-12-29T19:54:55;73.38;;;39.58;;
41255;SDS011;26989;45.524;10.938;2023-12-29T19:57:22;65.80;;;36.70;;
41255;SDS011;26989;45.524;10.938;2023-12-29T19:59:48;76.32;;;40.42;;
41255;SDS011;26989;45.524;10.938;2023-12-29T20:02:18;68.57;;;39.17;;
41255;SDS011;26989;45.524;10.938;2023-12-29T20:04:45;70.30;;;37.95;;
41255;SDS011;26989;45.524;10.938;2023-12-29T20:07:12;76.13;;;40.55;;
41255;SDS011;26989;45.524;10.938;2023-12-29T20:09:43;79.10;;;41.65;;
41255;SDS011;26989;45.524;10.938;2023-12-29T20:12:12;78.13;;;41.85;;
41255;SDS011;26989;45.524;10.938;2023-12-29T20:14:39;69.88;;;39.78;;
41255;SDS011;26989;45.524;10.938;2023-12-29T20:17:06;70.05;;;39.05;;
41255;SDS011;26989;45.524;10.938;2023-12-29T20:19:34;78.65;;;39.53;;
41255;SDS011;26989;45.524;10.938;2023-12-29T20:22:01;65.28;;;37.95;;
41255;SDS011;26989;45.524;10.938;2023-12-29T20:24:28;72.32;;;36.40;;
41255;SDS011;26989;45.524;10.938;2023-12-29T20:26:55;66.82;;;37.97;;
41255;SDS011;26989;45.524;10.938;2023-12-29T20:29:22;68.63;;;38.28;;
41255;SDS011;26989;45.524;10.938;2023-12-29T20:31:50;65.10;;;38.67;;
41255;SDS011;26989;45.524;10.938;2023-12-29T20:34:17;71.40;;;39.80;;
41255;SDS011;26989;45.524;10.938;2023-12-29T20:36:44;72.57;;;39.47;;
41255;SDS011;26989;45.524;10.938;2023-12-29T20:39:11;66.97;;;38.60;;
41255;SDS011;26989;45.524;10.938;2023-12-29T20:41:38;72.03;;;37.92;;
41255;SDS011;26989;45.524;10.938;2023-12-29T20:44:05;69.57;;;37.75;;
41255;SDS011;26989;45.524;10.938;2023-12-29T20:46:36;75.18;;;40.85;;
41255;SDS011;26989;45.524;10.938;2023-12-29T20:49:03;80.63;;;43.28;;
41255;SDS011;26989;45.524;10.938;2023-12-29T20:51:30;80.85;;;41.92;;
41255;SDS011;26989;45.524;10.938;2023-12-29T20:53:57;76.43;;;43.22;;
41255;SDS011;26989;45.524;10.938;2023-12-29T20:56:24;83.22;;;45.03;;
41255;SDS011;26989;45.524;10.938;2023-12-29T20:58:51;94.18;;;48.45;;
41255;SDS011;26989;45.524;10.938;2023-12-29T21:01:22;83.38;;;44.25;;
41255;SDS011;26989;45.524;10.938;2023-12-29T21:03:49;82.20;;;42.60;;
41255;SDS011;26989;45.524;10.938;2023-12-29T21:06:16;78.60;;;42.67;;
41255;SDS011;26989;45.524;10.938;2023-12-29T21:08:47;77.03;;;40.67;;
41255;SDS011;26989;45.524;10.938;2023-12-29T21:11:17;69.47;;;40.25;;
41255;SDS011;26989;45.524;10.938;2023-12-29T21:13:46;69.03;;;39.03;;
41255;SDS011;26989;45.524;10.938;2023-12-29T21:16:14;72.18;;;42.05;;
41255;SDS011;26989;45.524;10.938;2023-12-29T21:18:44;76.72;;;41.03;;
41255;SDS011;26989;45.524;10.938;2023-12-29T21:21:23;83.45;;;42.45;;
41255;SDS011;26989;45.524;10.938;2023-12-29T21:23:53;75.88;;;39.58;;
41255;SDS011;26989;45.524;10.938;2023-12-29T21:26:22;70.43;;;40.20;;
41255;SDS011;26989;45.524;10.938;2023-12-29T21:28:49;69.72;;;39.75;;
41255;SDS011;26989;45.524;10.938;2023-12-29T21:31:16;71.50;;;40.03;;
41255;SDS011;26989;45.524;10.938;2023-12-29T21:33:45;68.28;;;41.05;;
41255;SDS011;26989;45.524;10.938;2023-12-29T21:36:22;69.78;;;39.53;;
41255;SDS011;26989;45.524;10.938;2023-12-29T21:38:50;70.63;;;38.95;;
41255;SDS011;26989;45.524;10.938;2023-12-29T21:41:21;73.80;;;40.97;;
41255;SDS011;26989;45.524;10.938;2023-12-29T21:43:48;72.18;;;41.03;;
41255;SDS011;26989;45.524;10.938;2023-12-29T21:46:15;76.68;;;41.92;;
41255;SDS011;26989;45.524;10.938;2023-12-29T21:48:42;74.68;;;41.50;;
41255;SDS011;26989;45.524;10.938;2023-12-29T21:51:10;73.78;;;40.75;;
41255;SDS011;26989;45.524;10.938;2023-12-29T21:53:36;74.32;;;39.75;;
41255;SDS011;26989;45.524;10.938;2023-12-29T21:56:03;63.78;;;38.38;;
41255;SDS011;26989;45.524;10.938;2023-12-29T21:58:30;66.20;;;37.30;;
41255;SDS011;26989;45.524;10.938;2023-12-29T22:03:54;67.53;;;38.60;;
41255;SDS011;26989;45.524;10.938;2023-12-29T22:06:22;69.13;;;38.15;;
41255;SDS011;26989;45.524;10.938;2023-12-29T22:08:48;76.72;;;42.97;;
41255;SDS011;26989;45.524;10.938;2023-12-29T22:11:16;75.47;;;42.90;;